Terminal Aerodrome Forecast
Issued by NWS Wilmington, OH

Current Version | Previous Version | Graphics & Text | Print | Product List | Glossary On
Versions: 1 2 3 4 5 6 7 8 9 10 11 12 13 14 15 16 17 18 19 20 21 22 23 24
000
FTUS41 KILN 031100
TAFILN
TAF
KILN 031129Z 0312/0412 12006KT 6SM -FZRA OVC035
     FM031400 16010KT 5SM -FZRA OVC025
     FM031800 19011KT 5SM -SHRA BR BKN015 OVC035
     FM032200 22012G20KT 3SM -SHRA BR BKN008 OVC015
     FM040200 27010KT 3SM -RA BR OVC007=

USA.gov is the U.S. government's official web portal to all federal, state and local government web resources and services.